sensor_id;sensor_type;location;lat;lon;timestamp;P1;durP1;ratioP1;P2;durP2;ratioP2
35306;SDS011;21420;52.196;21.416;2023-03-08T00:02:21;5.90;;;5.30;;
35306;SDS011;21420;52.196;21.416;2023-03-08T00:04:48;7.50;;;6.00;;
35306;SDS011;21420;52.196;21.416;2023-03-08T00:07:15;7.20;;;4.80;;
35306;SDS011;21420;52.196;21.416;2023-03-08T00:09:42;6.40;;;4.40;;
35306;SDS011;21420;52.196;21.416;2023-03-08T00:12:11;5.90;;;4.90;;
35306;SDS011;21420;52.196;21.416;2023-03-08T00:14:38;5.30;;;4.80;;
35306;SDS011;21420;52.196;21.416;2023-03-08T00:17:05;7.10;;;5.50;;
35306;SDS011;21420;52.196;21.416;2023-03-08T00:19:32;7.50;;;5.40;;
35306;SDS011;21420;52.196;21.416;2023-03-08T00:21:59;7.40;;;4.60;;
35306;SDS011;21420;52.196;21.416;2023-03-08T00:24:26;4.30;;;3.80;;
35306;SDS011;21420;52.196;21.416;2023-03-08T00:26:53;7.30;;;3.80;;
35306;SDS011;21420;52.196;21.416;2023-03-08T00:29:20;4.00;;;3.60;;
35306;SDS011;21420;52.196;21.416;2023-03-08T00:31:47;6.60;;;3.10;;
35306;SDS011;21420;52.196;21.416;2023-03-08T00:34:17;3.50;;;2.50;;
35306;SDS011;21420;52.196;21.416;2023-03-08T00:36:45;2.80;;;2.20;;
35306;SDS011;21420;52.196;21.416;2023-03-08T00:39:16;4.60;;;2.40;;
35306;SDS011;21420;52.196;21.416;2023-03-08T00:41:43;3.80;;;2.40;;
35306;SDS011;21420;52.196;21.416;2023-03-08T00:44:10;5.20;;;2.30;;
35306;SDS011;21420;52.196;21.416;2023-03-08T00:46:37;4.50;;;2.40;;
35306;SDS011;21420;52.196;21.416;2023-03-08T00:49:04;4.60;;;1.80;;
35306;SDS011;21420;52.196;21.416;2023-03-08T00:51:31;1.90;;;1.50;;
35306;SDS011;21420;52.196;21.416;2023-03-08T00:53:58;5.00;;;2.20;;
35306;SDS011;21420;52.196;21.416;2023-03-08T00:56:25;2.30;;;1.90;;
35306;SDS011;21420;52.196;21.416;2023-03-08T00:58:53;2.60;;;2.00;;
35306;SDS011;21420;52.196;21.416;2023-03-08T01:01:20;3.60;;;2.00;;
35306;SDS011;21420;52.196;21.416;2023-03-08T01:03:48;4.00;;;2.10;;
35306;SDS011;21420;52.196;21.416;2023-03-08T01:06:15;4.20;;;2.90;;
35306;SDS011;21420;52.196;21.416;2023-03-08T01:08:42;3.60;;;3.10;;
35306;SDS011;21420;52.196;21.416;2023-03-08T01:11:14;4.00;;;2.60;;
35306;SDS011;21420;52.196;21.416;2023-03-08T01:13:46;4.10;;;2.00;;
35306;SDS011;21420;52.196;21.416;2023-03-08T01:16:19;4.30;;;2.30;;
35306;SDS011;21420;52.196;21.416;2023-03-08T01:18:49;2.00;;;1.80;;
35306;SDS011;21420;52.196;21.416;2023-03-08T01:21:26;3.30;;;2.10;;
35306;SDS011;21420;52.196;21.416;2023-03-08T01:23:54;3.80;;;2.10;;
35306;SDS011;21420;52.196;21.416;2023-03-08T01:26:22;4.50;;;2.20;;
35306;SDS011;21420;52.196;21.416;2023-03-08T01:28:54;3.70;;;2.50;;
35306;SDS011;21420;52.196;21.416;2023-03-08T01:31:26;3.90;;;3.00;;
35306;SDS011;21420;52.196;21.416;2023-03-08T01:33:56;3.90;;;2.60;;
35306;SDS011;21420;52.196;21.416;2023-03-08T01:36:25;4.80;;;3.10;;
35306;SDS011;21420;52.196;21.416;2023-03-08T01:38:53;5.00;;;3.30;;
35306;SDS011;21420;52.196;21.416;2023-03-08T01:43:52;5.70;;;3.50;;
35306;SDS011;21420;52.196;21.416;2023-03-08T01:49:11;5.80;;;3.70;;
35306;SDS011;21420;52.196;21.416;2023-03-08T01:51:50;5.10;;;4.10;;
35306;SDS011;21420;52.196;21.416;2023-03-08T01:54:23;5.70;;;4.10;;
35306;SDS011;21420;52.196;21.416;2023-03-08T01:56:56;5.10;;;3.40;;
35306;SDS011;21420;52.196;21.416;2023-03-08T01:59:27;6.10;;;3.90;;
35306;SDS011;21420;52.196;21.416;2023-03-08T02:01:57;4.60;;;4.10;;
35306;SDS011;21420;52.196;21.416;2023-03-08T02:04:26;6.00;;;3.00;;
35306;SDS011;21420;52.196;21.416;2023-03-08T02:06:53;4.50;;;3.70;;
35306;SDS011;21420;52.196;21.416;2023-03-08T02:09:23;5.30;;;4.10;;
35306;SDS011;21420;52.196;21.416;2023-03-08T02:11:51;7.80;;;5.20;;
35306;SDS011;21420;52.196;21.416;2023-03-08T02:14:18;6.80;;;5.10;;
35306;SDS011;21420;52.196;21.416;2023-03-08T02:16:47;9.10;;;5.90;;
35306;SDS011;21420;52.196;21.416;2023-03-08T02:19:16;7.20;;;5.70;;
35306;SDS011;21420;52.196;21.416;2023-03-08T02:21:49;9.80;;;6.00;;
35306;SDS011;21420;52.196;21.416;2023-03-08T02:26:46;8.40;;;5.30;;
35306;SDS011;21420;52.196;21.416;2023-03-08T02:29:17;6.80;;;4.90;;
35306;SDS011;21420;52.196;21.416;2023-03-08T02:31:45;6.40;;;5.30;;
35306;SDS011;21420;52.196;21.416;2023-03-08T02:34:12;5.40;;;4.60;;
35306;SDS011;21420;52.196;21.416;2023-03-08T02:36:39;5.30;;;4.10;;
35306;SDS011;21420;52.196;21.416;2023-03-08T02:39:06;6.10;;;3.30;;
35306;SDS011;21420;52.196;21.416;2023-03-08T02:41:33;7.70;;;3.60;;
35306;SDS011;21420;52.196;21.416;2023-03-08T02:43:59;5.20;;;3.60;;
35306;SDS011;21420;52.196;21.416;2023-03-08T02:46:26;5.20;;;3.70;;
35306;SDS011;21420;52.196;21.416;2023-03-08T02:48:56;6.60;;;3.10;;
35306;SDS011;21420;52.196;21.416;2023-03-08T02:51:25;3.20;;;2.80;;
35306;SDS011;21420;52.196;21.416;2023-03-08T02:53:52;5.10;;;2.90;;
35306;SDS011;21420;52.196;21.416;2023-03-08T02:56:20;4.40;;;3.10;;
35306;SDS011;21420;52.196;21.416;2023-03-08T02:58:47;4.90;;;2.70;;
35306;SDS011;21420;52.196;21.416;2023-03-08T03:01:14;4.90;;;2.60;;
35306;SDS011;21420;52.196;21.416;2023-03-08T03:03:41;4.30;;;2.30;;
35306;SDS011;21420;52.196;21.416;2023-03-08T03:06:12;3.40;;;2.60;;
35306;SDS011;21420;52.196;21.416;2023-03-08T03:08:45;5.70;;;2.20;;
35306;SDS011;21420;52.196;21.416;2023-03-08T03:11:14;5.50;;;2.60;;
35306;SDS011;21420;52.196;21.416;2023-03-08T03:13:45;6.60;;;2.30;;
35306;SDS011;21420;52.196;21.416;2023-03-08T03:19:35;4.80;;;2.30;;
35306;SDS011;21420;52.196;21.416;2023-03-08T03:22:03;4.40;;;2.10;;
35306;SDS011;21420;52.196;21.416;2023-03-08T03:24:30;5.50;;;2.30;;
35306;SDS011;21420;52.196;21.416;2023-03-08T03:26:57;9.10;;;2.40;;
35306;SDS011;21420;52.196;21.416;2023-03-08T03:29:26;7.90;;;2.90;;
35306;SDS011;21420;52.196;21.416;2023-03-08T03:32:00;3.10;;;1.60;;
35306;SDS011;21420;52.196;21.416;2023-03-08T03:34:27;7.30;;;2.60;;
35306;SDS011;21420;52.196;21.416;2023-03-08T03:36:55;10.30;;;3.20;;
35306;SDS011;21420;52.196;21.416;2023-03-08T03:39:22;30.40;;;18.60;;
35306;SDS011;21420;52.196;21.416;2023-03-08T03:41:50;27.10;;;17.00;;
35306;SDS011;21420;52.196;21.416;2023-03-08T03:44:17;33.30;;;24.60;;
35306;SDS011;21420;52.196;21.416;2023-03-08T03:46:45;8.80;;;5.90;;
35306;SDS011;21420;52.196;21.416;2023-03-08T03:49:14;3.80;;;2.10;;
35306;SDS011;21420;52.196;21.416;2023-03-08T03:51:42;6.60;;;2.90;;
35306;SDS011;21420;52.196;21.416;2023-03-08T03:54:29;7.60;;;2.60;;
35306;SDS011;21420;52.196;21.416;2023-03-08T03:56:56;6.30;;;2.40;;
35306;SDS011;21420;52.196;21.416;2023-03-08T03:59:25;4.50;;;2.30;;
35306;SDS011;21420;52.196;21.416;2023-03-08T04:01:52;5.30;;;1.60;;
35306;SDS011;21420;52.196;21.416;2023-03-08T04:04:33;9.00;;;4.00;;
35306;SDS011;21420;52.196;21.416;2023-03-08T04:07:00;5.90;;;2.30;;
35306;SDS011;21420;52.196;21.416;2023-03-08T04:09:31;6.70;;;1.80;;
35306;SDS011;21420;52.196;21.416;2023-03-08T04:12:04;3.90;;;1.70;;
35306;SDS011;21420;52.196;21.416;2023-03-08T04:14:32;6.60;;;3.60;;
35306;SDS011;21420;52.196;21.416;2023-03-08T04:16:59;9.10;;;4.00;;
35306;SDS011;21420;52.196;21.416;2023-03-08T04:19:34;3.30;;;2.00;;
35306;SDS011;21420;52.196;21.416;2023-03-08T04:22:01;4.00;;;2.60;;
35306;SDS011;21420;52.196;21.416;2023-03-08T04:24:34;7.10;;;2.40;;
35306;SDS011;21420;52.196;21.416;2023-03-08T04:27:04;4.80;;;3.00;;
35306;SDS011;21420;52.196;21.416;2023-03-08T04:29:31;5.80;;;2.20;;
35306;SDS011;21420;52.196;21.416;2023-03-08T04:31:59;4.20;;;2.90;;
35306;SDS011;21420;52.196;21.416;2023-03-08T04:34:32;5.70;;;3.10;;
35306;SDS011;21420;52.196;21.416;2023-03-08T04:37:00;6.30;;;3.50;;
35306;SDS011;21420;52.196;21.416;2023-03-08T04:39:27;6.00;;;3.00;;
35306;SDS011;21420;52.196;21.416;2023-03-08T04:41:54;5.40;;;3.60;;
35306;SDS011;21420;52.196;21.416;2023-03-08T04:44:24;6.10;;;4.20;;
35306;SDS011;21420;52.196;21.416;2023-03-08T04:46:52;6.60;;;4.50;;
35306;SDS011;21420;52.196;21.416;2023-03-08T04:49:27;5.60;;;4.00;;
35306;SDS011;21420;52.196;21.416;2023-03-08T04:51:57;5.80;;;4.20;;
35306;SDS011;21420;52.196;21.416;2023-03-08T04:54:25;8.70;;;4.90;;
35306;SDS011;21420;52.196;21.416;2023-03-08T04:56:58;6.10;;;5.50;;
35306;SDS011;21420;52.196;21.416;2023-03-08T04:59:25;7.60;;;4.90;;
35306;SDS011;21420;52.196;21.416;2023-03-08T05:01:54;8.40;;;5.40;;
35306;SDS011;21420;52.196;21.416;2023-03-08T05:04:21;6.80;;;6.10;;
35306;SDS011;21420;52.196;21.416;2023-03-08T05:06:48;17.10;;;9.40;;
35306;SDS011;21420;52.196;21.416;2023-03-08T05:09:19;7.40;;;5.40;;
35306;SDS011;21420;52.196;21.416;2023-03-08T05:11:47;6.90;;;5.60;;
35306;SDS011;21420;52.196;21.416;2023-03-08T05:14:14;7.80;;;6.70;;
35306;SDS011;21420;52.196;21.416;2023-03-08T05:16:41;9.70;;;6.60;;
35306;SDS011;21420;52.196;21.416;2023-03-08T05:19:08;8.90;;;6.90;;
35306;SDS011;21420;52.196;21.416;2023-03-08T05:21:42;13.20;;;9.70;;
35306;SDS011;21420;52.196;21.416;2023-03-08T05:24:09;9.70;;;7.30;;
35306;SDS011;21420;52.196;21.416;2023-03-08T05:26:36;9.10;;;6.70;;
35306;SDS011;21420;52.196;21.416;2023-03-08T05:29:04;10.40;;;7.00;;
35306;SDS011;21420;52.196;21.416;2023-03-08T05:31:32;9.50;;;7.00;;
35306;SDS011;21420;52.196;21.416;2023-03-08T05:34:03;9.20;;;8.30;;
35306;SDS011;21420;52.196;21.416;2023-03-08T05:36:35;8.70;;;7.20;;
35306;SDS011;21420;52.196;21.416;2023-03-08T05:39:04;10.90;;;7.30;;
35306;SDS011;21420;52.196;21.416;2023-03-08T05:41:52;9.70;;;7.70;;
35306;SDS011;21420;52.196;21.416;2023-03-08T05:44:24;11.30;;;8.10;;
35306;SDS011;21420;52.196;21.416;2023-03-08T05:46:51;12.80;;;9.10;;
35306;SDS011;21420;52.196;21.416;2023-03-08T05:49:19;12.50;;;8.80;;
35306;SDS011;21420;52.196;21.416;2023-03-08T05:51:45;10.50;;;9.20;;
35306;SDS011;21420;52.196;21.416;2023-03-08T05:54:13;14.20;;;10.60;;
35306;SDS011;21420;52.196;21.416;2023-03-08T05:56:40;11.90;;;9.40;;
35306;SDS011;21420;52.196;21.416;2023-03-08T05:59:14;12.40;;;9.20;;
35306;SDS011;21420;52.196;21.416;2023-03-08T06:01:41;11.80;;;10.20;;
35306;SDS011;21420;52.196;21.416;2023-03-08T06:04:16;11.70;;;10.20;;
35306;SDS011;21420;52.196;21.416;2023-03-08T06:06:46;14.20;;;9.40;;
35306;SDS011;21420;52.196;21.416;2023-03-08T06:09:12;13.80;;;10.20;;
35306;SDS011;21420;52.196;21.416;2023-03-08T06:11:40;11.50;;;10.30;;
35306;SDS011;21420;52.196;21.416;2023-03-08T06:14:07;13.20;;;10.50;;
35306;SDS011;21420;52.196;21.416;2023-03-08T06:16:37;13.60;;;10.00;;
35306;SDS011;21420;52.196;21.416;2023-03-08T06:19:05;12.00;;;9.80;;
35306;SDS011;21420;52.196;21.416;2023-03-08T06:21:33;14.60;;;10.00;;
35306;SDS011;21420;52.196;21.416;2023-03-08T06:24:02;11.60;;;10.40;;
35306;SDS011;21420;52.196;21.416;2023-03-08T06:26:29;13.80;;;10.40;;
35306;SDS011;21420;52.196;21.416;2023-03-08T06:28:57;14.80;;;10.70;;
35306;SDS011;21420;52.196;21.416;2023-03-08T06:31:26;13.30;;;9.70;;
35306;SDS011;21420;52.196;21.416;2023-03-08T06:33:54;13.50;;;10.80;;
35306;SDS011;21420;52.196;21.416;2023-03-08T06:36:23;11.50;;;10.20;;
35306;SDS011;21420;52.196;21.416;2023-03-08T06:38:50;12.00;;;9.60;;
35306;SDS011;21420;52.196;21.416;2023-03-08T06:41:17;12.10;;;10.30;;
35306;SDS011;21420;52.196;21.416;2023-03-08T06:43:49;15.20;;;11.40;;
35306;SDS011;21420;52.196;21.416;2023-03-08T06:46:17;14.10;;;10.60;;
35306;SDS011;21420;52.196;21.416;2023-03-08T06:48:45;10.70;;;8.60;;
35306;SDS011;21420;52.196;21.416;2023-03-08T06:51:14;17.70;;;11.30;;
35306;SDS011;21420;52.196;21.416;2023-03-08T06:53:43;14.60;;;10.80;;
35306;SDS011;21420;52.196;21.416;2023-03-08T06:56:14;13.50;;;10.00;;
35306;SDS011;21420;52.196;21.416;2023-03-08T06:58:42;19.70;;;10.10;;
35306;SDS011;21420;52.196;21.416;2023-03-08T07:01:10;12.40;;;10.30;;
35306;SDS011;21420;52.196;21.416;2023-03-08T07:03:39;15.10;;;10.30;;
35306;SDS011;21420;52.196;21.416;2023-03-08T07:06:08;12.30;;;10.30;;
35306;SDS011;21420;52.196;21.416;2023-03-08T07:08:36;11.10;;;9.30;;
35306;SDS011;21420;52.196;21.416;2023-03-08T07:11:05;14.40;;;9.10;;
35306;SDS011;21420;52.196;21.416;2023-03-08T07:13:35;10.60;;;8.20;;
35306;SDS011;21420;52.196;21.416;2023-03-08T07:16:07;11.00;;;7.70;;
35306;SDS011;21420;52.196;21.416;2023-03-08T07:18:39;10.70;;;7.70;;
35306;SDS011;21420;52.196;21.416;2023-03-08T07:21:07;10.80;;;8.40;;
35306;SDS011;21420;52.196;21.416;2023-03-08T07:23:35;10.00;;;7.00;;
35306;SDS011;21420;52.196;21.416;2023-03-08T07:26:03;9.30;;;8.20;;
35306;SDS011;21420;52.196;21.416;2023-03-08T07:28:31;11.70;;;8.40;;
35306;SDS011;21420;52.196;21.416;2023-03-08T07:30:58;9.70;;;7.60;;
35306;SDS011;21420;52.196;21.416;2023-03-08T07:33:25;10.70;;;7.30;;
35306;SDS011;21420;52.196;21.416;2023-03-08T07:35:52;8.90;;;6.60;;
35306;SDS011;21420;52.196;21.416;2023-03-08T07:38:19;10.40;;;7.00;;
35306;SDS011;21420;52.196;21.416;2023-03-08T07:40:52;8.70;;;6.60;;
35306;SDS011;21420;52.196;21.416;2023-03-08T07:43:22;10.60;;;6.50;;
35306;SDS011;21420;52.196;21.416;2023-03-08T07:45:52;8.10;;;6.30;;
35306;SDS011;21420;52.196;21.416;2023-03-08T07:48:19;6.80;;;6.00;;
35306;SDS011;21420;52.196;21.416;2023-03-08T07:50:46;9.70;;;5.70;;
35306;SDS011;21420;52.196;21.416;2023-03-08T07:53:14;6.10;;;5.50;;
35306;SDS011;21420;52.196;21.416;2023-03-08T07:55:41;7.00;;;6.00;;
35306;SDS011;21420;52.196;21.416;2023-03-08T07:58:08;6.90;;;5.10;;
35306;SDS011;21420;52.196;21.416;2023-03-08T08:00:35;8.60;;;6.30;;
35306;SDS011;21420;52.196;21.416;2023-03-08T08:03:02;8.60;;;6.10;;
35306;SDS011;21420;52.196;21.416;2023-03-08T08:05:29;6.40;;;5.70;;
35306;SDS011;21420;52.196;21.416;2023-03-08T08:07:56;6.30;;;5.60;;
35306;SDS011;21420;52.196;21.416;2023-03-08T08:10:23;10.20;;;6.00;;
35306;SDS011;21420;52.196;21.416;2023-03-08T08:12:50;11.50;;;5.80;;
35306;SDS011;21420;52.196;21.416;2023-03-08T08:15:17;7.80;;;4.50;;
35306;SDS011;21420;52.196;21.416;2023-03-08T08:17:44;6.20;;;5.00;;
35306;SDS011;21420;52.196;21.416;2023-03-08T08:20:11;8.90;;;6.00;;
35306;SDS011;21420;52.196;21.416;2023-03-08T08:22:40;6.50;;;5.40;;
35306;SDS011;21420;52.196;21.416;2023-03-08T08:25:07;6.70;;;5.00;;
35306;SDS011;21420;52.196;21.416;2023-03-08T08:27:34;8.50;;;5.70;;
35306;SDS011;21420;52.196;21.416;2023-03-08T08:30:02;21.00;;;7.00;;
35306;SDS011;21420;52.196;21.416;2023-03-08T08:32:31;20.50;;;11.60;;
35306;SDS011;21420;52.196;21.416;2023-03-08T08:35:00;11.00;;;6.60;;
35306;SDS011;21420;52.196;21.416;2023-03-08T08:37:28;9.70;;;6.40;;
35306;SDS011;21420;52.196;21.416;2023-03-08T08:39:56;9.00;;;5.60;;
35306;SDS011;21420;52.196;21.416;2023-03-08T08:42:23;8.30;;;6.40;;
35306;SDS011;21420;52.196;21.416;2023-03-08T08:44:54;6.60;;;5.70;;
35306;SDS011;21420;52.196;21.416;2023-03-08T08:47:21;5.60;;;4.90;;
35306;SDS011;21420;52.196;21.416;2023-03-08T08:49:48;7.20;;;5.10;;
35306;SDS011;21420;52.196;21.416;2023-03-08T08:52:15;6.80;;;5.00;;
35306;SDS011;21420;52.196;21.416;2023-03-08T08:54:42;6.30;;;5.10;;
35306;SDS011;21420;52.196;21.416;2023-03-08T08:57:09;6.20;;;4.70;;
35306;SDS011;21420;52.196;21.416;2023-03-08T08:59:36;6.40;;;5.10;;
35306;SDS011;21420;52.196;21.416;2023-03-08T09:02:03;6.30;;;5.10;;
35306;SDS011;21420;52.196;21.416;2023-03-08T09:04:31;6.90;;;5.60;;
35306;SDS011;21420;52.196;21.416;2023-03-08T09:06:59;7.70;;;4.90;;
35306;SDS011;21420;52.196;21.416;2023-03-08T09:09:26;5.90;;;5.10;;
35306;SDS011;21420;52.196;21.416;2023-03-08T09:11:53;6.10;;;5.50;;
35306;SDS011;21420;52.196;21.416;2023-03-08T09:14:21;6.60;;;5.00;;
35306;SDS011;21420;52.196;21.416;2023-03-08T09:16:49;7.60;;;5.10;;
35306;SDS011;21420;52.196;21.416;2023-03-08T09:19:18;7.40;;;5.50;;
35306;SDS011;21420;52.196;21.416;2023-03-08T09:21:45;5.90;;;4.20;;
35306;SDS011;21420;52.196;21.416;2023-03-08T09:24:13;7.10;;;4.60;;
35306;SDS011;21420;52.196;21.416;2023-03-08T09:26:40;6.60;;;4.70;;
35306;SDS011;21420;52.196;21.416;2023-03-08T09:29:07;7.50;;;5.30;;
35306;SDS011;21420;52.196;21.416;2023-03-08T09:31:35;6.50;;;4.80;;
35306;SDS011;21420;52.196;21.416;2023-03-08T09:34:03;6.10;;;4.80;;
35306;SDS011;21420;52.196;21.416;2023-03-08T09:36:35;6.20;;;4.70;;
35306;SDS011;21420;52.196;21.416;2023-03-08T09:39:06;7.30;;;5.50;;
35306;SDS011;21420;52.196;21.416;2023-03-08T09:41:39;6.20;;;4.90;;
35306;SDS011;21420;52.196;21.416;2023-03-08T09:46:45;7.60;;;5.20;;
35306;SDS011;21420;52.196;21.416;2023-03-08T09:49:33;17.60;;;6.30;;
35306;SDS011;21420;52.196;21.416;2023-03-08T09:52:49;6.80;;;4.90;;
35306;SDS011;21420;52.196;21.416;2023-03-08T09:54:52;7.80;;;4.80;;
35306;SDS011;21420;52.196;21.416;2023-03-08T09:57:24;15.20;;;6.10;;
35306;SDS011;21420;52.196;21.416;2023-03-08T10:00:06;7.10;;;4.10;;
35306;SDS011;21420;52.196;21.416;2023-03-08T10:02:46;14.80;;;6.30;;
35306;SDS011;21420;52.196;21.416;2023-03-08T10:05:34;8.00;;;4.80;;
35306;SDS011;21420;52.196;21.416;2023-03-08T10:08:12;7.80;;;5.20;;
35306;SDS011;21420;52.196;21.416;2023-03-08T10:13:31;7.70;;;4.60;;
35306;SDS011;21420;52.196;21.416;2023-03-08T10:16:05;5.30;;;4.30;;
35306;SDS011;21420;52.196;21.416;2023-03-08T10:18:49;7.50;;;3.80;;
35306;SDS011;21420;52.196;21.416;2023-03-08T10:21:21;6.50;;;4.50;;
35306;SDS011;21420;52.196;21.416;2023-03-08T10:26:30;51.00;;;11.10;;
35306;SDS011;21420;52.196;21.416;2023-03-08T10:28:57;12.20;;;4.40;;
35306;SDS011;21420;52.196;21.416;2023-03-08T10:31:28;38.20;;;8.20;;
35306;SDS011;21420;52.196;21.416;2023-03-08T10:34:11;6.90;;;4.10;;
35306;SDS011;21420;52.196;21.416;2023-03-08T10:36:59;7.10;;;4.70;;
35306;SDS011;21420;52.196;21.416;2023-03-08T10:39:27;5.90;;;4.60;;
35306;SDS011;21420;52.196;21.416;2023-03-08T10:41:56;6.80;;;4.50;;
35306;SDS011;21420;52.196;21.416;2023-03-08T10:47:00;7.30;;;4.50;;
35306;SDS011;21420;52.196;21.416;2023-03-08T10:49:29;6.40;;;4.40;;
35306;SDS011;21420;52.196;21.416;2023-03-08T10:51:57;5.80;;;4.30;;
35306;SDS011;21420;52.196;21.416;2023-03-08T10:54:26;4.20;;;3.40;;
35306;SDS011;21420;52.196;21.416;2023-03-08T10:56:55;9.10;;;4.30;;
35306;SDS011;21420;52.196;21.416;2023-03-08T10:59:23;6.00;;;4.00;;
35306;SDS011;21420;52.196;21.416;2023-03-08T11:02:14;6.30;;;3.70;;
35306;SDS011;21420;52.196;21.416;2023-03-08T11:04:54;5.80;;;4.10;;
35306;SDS011;21420;52.196;21.416;2023-03-08T11:12:40;6.30;;;3.40;;
35306;SDS011;21420;52.196;21.416;2023-03-08T11:15:11;5.00;;;4.00;;
35306;SDS011;21420;52.196;21.416;2023-03-08T11:17:52;7.80;;;3.40;;
35306;SDS011;21420;52.196;21.416;2023-03-08T11:20:26;6.10;;;4.20;;
35306;SDS011;21420;52.196;21.416;2023-03-08T11:25:53;6.60;;;3.80;;
35306;SDS011;21420;52.196;21.416;2023-03-08T11:28:38;8.70;;;3.40;;
35306;SDS011;21420;52.196;21.416;2023-03-08T11:31:18;6.30;;;4.00;;
35306;SDS011;21420;52.196;21.416;2023-03-08T11:37:29;6.70;;;4.50;;
35306;SDS011;21420;52.196;21.416;2023-03-08T11:39:32;7.10;;;4.40;;
35306;SDS011;21420;52.196;21.416;2023-03-08T11:58:59;5.90;;;3.70;;
35306;SDS011;21420;52.196;21.416;2023-03-08T12:01:44;4.50;;;3.50;;
35306;SDS011;21420;52.196;21.416;2023-03-08T12:04:14;4.30;;;3.70;;
35306;SDS011;21420;52.196;21.416;2023-03-08T12:06:50;5.70;;;4.00;;
35306;SDS011;21420;52.196;21.416;2023-03-08T12:09:28;5.40;;;4.10;;
35306;SDS011;21420;52.196;21.416;2023-03-08T12:15:01;5.00;;;3.80;;
35306;SDS011;21420;52.196;21.416;2023-03-08T12:17:41;7.30;;;4.40;;
35306;SDS011;21420;52.196;21.416;2023-03-08T12:20:13;5.90;;;4.40;;
35306;SDS011;21420;52.196;21.416;2023-03-08T12:22:45;5.60;;;4.70;;
35306;SDS011;21420;52.196;21.416;2023-03-08T12:32:56;5.20;;;3.30;;
35306;SDS011;21420;52.196;21.416;2023-03-08T12:35:32;6.50;;;3.50;;
35306;SDS011;21420;52.196;21.416;2023-03-08T12:40:30;5.70;;;3.60;;
35306;SDS011;21420;52.196;21.416;2023-03-08T12:43:07;5.50;;;3.50;;
35306;SDS011;21420;52.196;21.416;2023-03-08T12:45:41;5.80;;;3.50;;
35306;SDS011;21420;52.196;21.416;2023-03-08T12:56:03;6.30;;;4.10;;
35306;SDS011;21420;52.196;21.416;2023-03-08T12:58:33;6.10;;;4.30;;
35306;SDS011;21420;52.196;21.416;2023-03-08T13:03:53;9.70;;;4.70;;
35306;SDS011;21420;52.196;21.416;2023-03-08T13:09:17;5.70;;;4.00;;
35306;SDS011;21420;52.196;21.416;2023-03-08T13:11:50;6.50;;;4.10;;
35306;SDS011;21420;52.196;21.416;2023-03-08T13:14:26;6.20;;;4.30;;
35306;SDS011;21420;52.196;21.416;2023-03-08T13:20:00;8.70;;;4.40;;
35306;SDS011;21420;52.196;21.416;2023-03-08T13:25:08;6.20;;;4.10;;
35306;SDS011;21420;52.196;21.416;2023-03-08T13:30:18;4.80;;;4.20;;
35306;SDS011;21420;52.196;21.416;2023-03-08T13:32:46;10.50;;;4.50;;
35306;SDS011;21420;52.196;21.416;2023-03-08T13:35:14;6.70;;;4.10;;
35306;SDS011;21420;52.196;21.416;2023-03-08T13:37:50;6.80;;;3.80;;
35306;SDS011;21420;52.196;21.416;2023-03-08T13:40:21;6.20;;;3.60;;
35306;SDS011;21420;52.196;21.416;2023-03-08T13:42:56;6.60;;;3.60;;
35306;SDS011;21420;52.196;21.416;2023-03-08T13:45:28;7.20;;;3.90;;
35306;SDS011;21420;52.196;21.416;2023-03-08T13:47:56;4.70;;;4.20;;
35306;SDS011;21420;52.196;21.416;2023-03-08T13:50:27;6.70;;;3.90;;
35306;SDS011;21420;52.196;21.416;2023-03-08T13:53:03;5.50;;;4.00;;
35306;SDS011;21420;52.196;21.416;2023-03-08T13:55:41;4.50;;;4.00;;
35306;SDS011;21420;52.196;21.416;2023-03-08T13:58:14;10.90;;;4.80;;
35306;SDS011;21420;52.196;21.416;2023-03-08T14:00:57;8.70;;;5.00;;
35306;SDS011;21420;52.196;21.416;2023-03-08T14:03:45;8.00;;;5.10;;
35306;SDS011;21420;52.196;21.416;2023-03-08T14:11:18;7.70;;;4.70;;
35306;SDS011;21420;52.196;21.416;2023-03-08T14:13:51;7.70;;;4.70;;
35306;SDS011;21420;52.196;21.416;2023-03-08T14:16:30;7.00;;;4.90;;
35306;SDS011;21420;52.196;21.416;2023-03-08T14:21:49;6.60;;;4.80;;
35306;SDS011;21420;52.196;21.416;2023-03-08T14:24:29;7.80;;;5.50;;
35306;SDS011;21420;52.196;21.416;2023-03-08T14:27:00;7.40;;;5.00;;
35306;SDS011;21420;52.196;21.416;2023-03-08T14:29:31;8.20;;;4.70;;
35306;SDS011;21420;52.196;21.416;2023-03-08T14:34:41;6.90;;;5.20;;
35306;SDS011;21420;52.196;21.416;2023-03-08T14:40:44;8.70;;;5.10;;
35306;SDS011;21420;52.196;21.416;2023-03-08T14:42:53;6.00;;;4.20;;
35306;SDS011;21420;52.196;21.416;2023-03-08T14:45:30;6.80;;;5.00;;
35306;SDS011;21420;52.196;21.416;2023-03-08T14:48:13;5.10;;;4.60;;
35306;SDS011;21420;52.196;21.416;2023-03-08T14:50:51;7.00;;;4.40;;
35306;SDS011;21420;52.196;21.416;2023-03-08T14:53:38;6.50;;;4.80;;
35306;SDS011;21420;52.196;21.416;2023-03-08T14:56:13;7.20;;;4.70;;
35306;SDS011;21420;52.196;21.416;2023-03-08T14:58:48;6.70;;;4.70;;
35306;SDS011;21420;52.196;21.416;2023-03-08T15:03:56;9.00;;;5.20;;
35306;SDS011;21420;52.196;21.416;2023-03-08T15:06:25;9.50;;;4.90;;
35306;SDS011;21420;52.196;21.416;2023-03-08T15:08:54;11.60;;;5.80;;
35306;SDS011;21420;52.196;21.416;2023-03-08T15:11:23;7.40;;;4.90;;
35306;SDS011;21420;52.196;21.416;2023-03-08T15:13:50;9.90;;;5.30;;
35306;SDS011;21420;52.196;21.416;2023-03-08T15:16:17;7.90;;;5.50;;
35306;SDS011;21420;52.196;21.416;2023-03-08T15:18:46;7.40;;;5.20;;
35306;SDS011;21420;52.196;21.416;2023-03-08T15:21:13;9.70;;;5.30;;
35306;SDS011;21420;52.196;21.416;2023-03-08T15:23:44;16.20;;;12.60;;
35306;SDS011;21420;52.196;21.416;2023-03-08T15:26:14;14.00;;;11.00;;
35306;SDS011;21420;52.196;21.416;2023-03-08T15:28:53;11.60;;;7.60;;
35306;SDS011;21420;52.196;21.416;2023-03-08T15:31:20;15.80;;;7.70;;
35306;SDS011;21420;52.196;21.416;2023-03-08T15:33:48;10.90;;;7.00;;
35306;SDS011;21420;52.196;21.416;2023-03-08T15:36:16;11.80;;;6.60;;
35306;SDS011;21420;52.196;21.416;2023-03-08T15:38:45;10.70;;;7.70;;
35306;SDS011;21420;52.196;21.416;2023-03-08T15:41:15;11.90;;;6.90;;
35306;SDS011;21420;52.196;21.416;2023-03-08T15:43:42;12.00;;;7.80;;
35306;SDS011;21420;52.196;21.416;2023-03-08T15:46:13;16.70;;;8.80;;
35306;SDS011;21420;52.196;21.416;2023-03-08T15:48:41;16.30;;;9.20;;
35306;SDS011;21420;52.196;21.416;2023-03-08T15:51:15;18.80;;;11.60;;
35306;SDS011;21420;52.196;21.416;2023-03-08T15:53:44;11.30;;;7.80;;
35306;SDS011;21420;52.196;21.416;2023-03-08T15:56:12;17.40;;;11.90;;
35306;SDS011;21420;52.196;21.416;2023-03-08T15:58:39;17.50;;;11.10;;
35306;SDS011;21420;52.196;21.416;2023-03-08T16:01:06;23.60;;;16.30;;
35306;SDS011;21420;52.196;21.416;2023-03-08T16:03:33;27.60;;;18.30;;
35306;SDS011;21420;52.196;21.416;2023-03-08T16:06:01;9.00;;;5.90;;
35306;SDS011;21420;52.196;21.416;2023-03-08T16:08:34;10.60;;;5.40;;
35306;SDS011;21420;52.196;21.416;2023-03-08T16:11:06;22.20;;;12.80;;
35306;SDS011;21420;52.196;21.416;2023-03-08T16:13:34;11.90;;;8.00;;
35306;SDS011;21420;52.196;21.416;2023-03-08T16:16:02;13.40;;;8.20;;
35306;SDS011;21420;52.196;21.416;2023-03-08T16:18:30;11.00;;;9.30;;
35306;SDS011;21420;52.196;21.416;2023-03-08T16:20:59;17.00;;;8.90;;
35306;SDS011;21420;52.196;21.416;2023-03-08T16:23:27;17.40;;;7.60;;
35306;SDS011;21420;52.196;21.416;2023-03-08T16:26:05;12.20;;;7.80;;
35306;SDS011;21420;52.196;21.416;2023-03-08T16:28:43;12.40;;;7.40;;
35306;SDS011;21420;52.196;21.416;2023-03-08T16:31:12;15.10;;;8.10;;